Memmingen, Germany

5:32 PM CET on October 31, 2014 (GMT +0100)
Tannenbauer Moosbach Ottobeurer Str. 1 | Change Station
CLOSE
Current Station
Personal Weather Station
Location: Lachen, BAYERN
Elevation: 2100 ft
Nearby Weather Stations

Elev 2100 ft 47.96 °N, 10.24 °E | Updated 1 minute ago

Mostly Cloudy
Mostly Cloudy
51.1 °F
Feels Like 51.1 °F
N
0.0
Wind Variable Wind from SSE
Gusts 0.0 mph

Today
High -- | Low -- °F
--% Chance of Precip.
Yesterday
High -- | Low -- °F
Precip. -- in
7:02 AM 5:02 PM
First Quarter, 56% visible
Pressure 30.30 in
Visibility 6.2 miles
Clouds Mostly Cloudy 12000 ft
Mostly Cloudy 22000 ft
Dew Point 48 °F
Humidity 90%
Rainfall 0.00 in
Snow Depth Not available.
UV 0.0 out of 12
Pollen Not available.
Air Quality Not available.
Flu Activity Not available.
METAR ETHL 311620Z 06002KT 9999 BKN120 BKN220 11/09 Q1026 BLU

More Conditions Fewer Conditions

Pressure 30.30 in
Visibility 6.2 miles
Clouds Mostly Cloudy 12000 ft
Mostly Cloudy 22000 ft
Dew Point 48 °F
Humidity 90%
Rainfall 0.00 in
Snow Depth Not available.
UV 0.0 out of 12
Pollen Not available.
Air Quality Not available.
Flu Activity Not available.
METAR ETHL 311620Z 06002KT 9999 BKN120 BKN220 11/09 Q1026 BLU

More Conditions Fewer Conditions

10-Day Weather Forecast

Almanac

Astronomy

Oct. 31, 2014 Rise Set
Actual Time
Civil Twilight
Nautical Twilight
Astronomical Twilight
Moon
Length of Visible Light
Length of Day
Tomorrow will be .
, % of the Moon is Illuminated

Today's Extremes

Country Highs Country Lows

Community

WunderPhotos

Upload Photos

1,766,656 photos uploaded!

WunderBlogs® & News

Nearby

Air Quality

  Air Quality AQ Index Pollutant
Not available.

Snow Depth

Station Depth Elevation

Earthquake Activity

City Distance Mag. Time & Date
Minimum magnitude displayed is 2.5.

Coastal Water Temperatures

Place Temperature

Nearby Weather Stations